Startpagina
METAR-TAF:

METAR-TAF

Vliegvelden :

Los Angeles, Californië, Verenigde Staten

Internationale luchthaven van Los Angeles

breedte: 33-56-17N, lengte: 118-23-20W, hoogte: 38 m

Actueel weer

Dit bericht is 1 uur en het 11 minuten geleden gemaakt, om 12:53 UTC
Wind 3 kt uit het noordnoordoosten
Temperatuur 14°C
Vochtigheid 24%
Druk 1017 hPa
Zicht: 16.1 km
Onbewolkt

METAR: KLAX 191253Z 03003KT 10SM CLR 14/M06 A3004 RMK AO2 SLP171 T01441056

Tijdstip: 06:04 (14:04 UTC)

Verwachting

Dit bericht is 2 uur en het 37 minuten geleden gemaakt, om 11:27 UTC
Verwachting geldig van 19 om 12 UTC tot 20 om 18 UTC
Wind 6 kt uit het noordnoordoosten
Zicht: 10 km
Onbewolkt
Van 19 om 1600 UTC
Wind 3 kt uit variabele richting
Zicht: 10 km
Onbewolkt
Van 19 om 2000 UTC
Wind 10 kt uit het westen
Zicht: 10 km
Onbewolkt
Van 20 om 0400 UTC
Wind 3 kt uit variabele richting
Zicht: 10 km
Onbewolkt

TAF: KLAX 191127Z 1912/2018 02006KT P6SM SKC FM191600 VRB03KT P6SM SKC FM192000 27010KT P6SM SKC FM200400 VRB03KT P6SM SKC

Waarnemingen en weersverwachtingen van meer dan 4000 vliegvelden (METAR en TAF).

De beschikbare stations zijn de gele en rode punten op de kaart.

Ga met uw muis naar het station om de naam te zien.

Klik dan om waarnemingen en weersverwachtingen te zien.

kaart wijzigen: klik op de groene knoppen met een zwart kruis om in te zoomen, op de groene knop met een streepje om uit te zoomen of op de groene pijlen voor aangrenzende kaarten.


METAR-TAF: